Oceana Nas /Apollo Soucek Field/ Station
KNTU : now visible

Airfield :











YOU CAN JOIN US ON...

 
LOGIN :

Register | Disclaimer

   EN    FR    IT 

 









Legend :    VFR   Marginal VFR   IFR   Intensive IFR   Very Intensive IFR
Visi :
Ceiling :
>= 8 km
>= 3000ft
5 to 8 km
1000 to 3000 ft
1500m to 5 km
500 to 1000 ft
800 to 1500m
200 to 500 ft
< 800m
< 200 ft
Symbols :   Thunderstorms  Fog  Heavy snow  Heavy precipitations  Wind > 20 kt







- Airport Elevation : 23 ft


KNTU - Oceana Nas /Apollo Soucek Field/ Station

CURRENT METAR :
  • 220756Z 23006KT 10SM BKN070 26/23 A2991 RMK AO2 SLP130 T02610228 $

EXPIRED METARs :
  • 220656Z 23005KT 10SM CLR 27/23 A2991 RMK AO2 SLP131 T02720228 $
  • 220556Z 23006KT 10SM CLR 28/23 A2991 RMK AO2 SLP130 T02780228 10328 20267 50000 $

TAF TAF KNTU
Valid from the 22 at 07:00 until the 23 at 07:00 UTC


2207/2307 22010G18KT 9999 FEW040 SCT250 QNH2982INS
BECMG 2211/2213 23013G20KT 9999 SCT050 BKN250 QNH2980INS
BECMG 2216/2218 23015G22KT 9999 SCT030 SCT050 BKN250 QNH2980INS
BECMG 2219/2221 24017G24KT 9999 VCSH SCT020 BKN035 OVC060 QNH2979INS
FM222300 2401724KT 9999 VCTS BKN020CB BKN035 OVC060 QNH2978INS
TEMPO 2223/2304 VRB20G30KT 1600 TSRA BKN015CB BKN030 OVC050 QNH2979INS T27/2209Z T36/2218Z FN00182
KZDC FIR / North America



MET'MAP, your aeronautical weather chart ! - Copyright ORBIFLY December 2007 - Disclaimer

ORBIFLY MET'MAP TEAM :

Programming & Development : Alexandra Zaïnal
Concept & Development : Baudouin d'Aumeries
Co-Development & Prog : Marc-Olivier Méhu
Technical & hardware support : Manuel Goepfert

Contact : metmap@orbifly.com




SOURCES & CREDITS :

   NOAA       Earth
Advisory